Time;durP1;ratioP1;P1;durP2;ratioP2;P2;SDS_P1;SDS_P2;PMS_P1;PMS_P2;Temp;Humidity;BMP_temperature;BMP_pressure;BME280_temperature;BME280_humidity;BME280_pressure;Samples;Min_cycle;Max_cycle;Signal;HPM_P1;HPM_P2
2022/08/28 00:00:19;;;;;;;10.02;8.98;;;;;;;19.93;98.56;96654.66;4943454;29;20051;-80
2022/08/28 00:02:48;;;;;;;12.60;9.38;;;;;;;19.94;98.10;96653.59;4954839;23;20034;-79
2022/08/28 00:05:17;;;;;;;12.20;9.02;;;;;;;19.95;98.03;96652.56;4942062;28;20084;-79
2022/08/28 00:07:45;;;;;;;8.65;7.75;;;;;;;19.91;96.71;96654.88;4942367;29;20088;-79
2022/08/28 00:10:16;;;;;;;9.75;8.85;;;;;;;19.91;95.51;96654.09;4941751;29;20088;-79
2022/08/28 00:12:45;;;;;;;9.05;8.02;;;;;;;19.91;94.58;96659.38;4942266;29;20051;-79
2022/08/28 00:15:18;;;;;;;11.30;8.68;;;;;;;19.91;95.43;96654.09;4942058;29;20119;-79
2022/08/28 00:17:46;;;;;;;9.93;8.20;;;;;;;19.92;94.90;96655.69;4941708;28;20052;-79
2022/08/28 00:20:16;;;;;;;9.77;8.43;;;;;;;19.95;97.00;96660.50;4941236;29;20060;-79
2022/08/28 00:22:45;;;;;;;10.98;8.90;;;;;;;19.95;97.64;96655.22;4941454;29;20056;-79
2022/08/28 00:25:14;;;;;;;8.73;7.90;;;;;;;19.91;97.14;96656.72;4941443;29;20052;-79
2022/08/28 00:27:53;;;;;;;10.30;9.20;;;;;;;19.92;98.19;96655.69;4940847;29;20093;-79
2022/08/28 00:30:28;;;;;;;9.98;8.30;;;;;;;19.92;97.47;96658.34;4939634;29;20060;-79
2022/08/28 00:32:58;;;;;;;11.40;10.05;;;;;;;19.90;97.79;96652.50;4932445;29;20051;-79
2022/08/28 00:35:26;;;;;;;11.32;9.65;;;;;;;19.89;97.52;96658.81;4940678;29;20034;-79
2022/08/28 00:37:55;;;;;;;9.30;7.93;;;;;;;19.85;97.25;96655.81;4940780;28;20051;-79
2022/08/28 00:40:27;;;;;;;12.43;10.27;;;;;;;19.87;98.15;96664.34;4940547;29;20180;-79
2022/08/28 00:43:00;;;;;;;9.70;8.55;;;;;;;19.85;95.67;96661.13;4940852;29;20048;-79
2022/08/28 00:45:31;;;;;;;9.70;8.70;;;;;;;19.87;95.86;96663.53;4936038;29;20064;-79
2022/08/28 00:48:05;;;;;;;13.45;8.15;;;;;;;19.82;94.24;96666.91;4941306;29;20119;-79
2022/08/28 00:52:04;;;;;;;12.75;10.63;;;;;;;19.80;94.47;96662.91;4941120;29;20032;-79
2022/08/28 00:53:26;;;;;;;11.00;8.38;;;;;;;19.75;93.28;96656.47;4940211;29;20056;-79
2022/08/28 00:56:00;;;;;;;9.65;8.38;;;;;;;19.69;92.61;96657.41;4940352;29;20056;-79
2022/08/28 00:58:31;;;;;;;9.80;8.80;;;;;;;19.71;95.33;96655.34;4937593;29;20052;-79
2022/08/28 01:01:00;;;;;;;11.98;9.43;;;;;;;19.66;90.84;96655.22;4938845;29;20085;-79
2022/08/28 01:03:28;;;;;;;12.73;9.13;;;;;;;19.59;88.28;96646.66;4935735;29;20071;-79
2022/08/28 01:05:55;;;;;;;12.32;8.85;;;;;;;19.54;88.12;96651.81;4940300;29;20084;-79
2022/08/28 01:08:23;;;;;;;10.02;9.02;;;;;;;19.54;88.58;96649.19;4940441;29;20052;-79
2022/08/28 01:11:00;;;;;;;11.50;9.50;;;;;;;19.56;88.92;96644.47;4934896;28;20112;-79
2022/08/28 01:13:29;;;;;;;12.32;10.18;;;;;;;19.54;87.50;96638.59;4937561;29;20052;-79
2022/08/28 01:15:57;;;;;;;9.75;8.70;;;;;;;19.59;91.13;96640.53;4941117;29;20060;-79
2022/08/28 01:18:29;;;;;;;10.27;8.65;;;;;;;19.66;94.10;96631.41;4938635;29;20068;-79
2022/08/28 01:21:05;;;;;;;15.00;10.75;;;;;;;19.66;92.46;96642.00;4940604;29;20130;-79
2022/08/28 01:23:56;;;;;;;10.95;9.70;;;;;;;19.67;91.67;96632.22;4941215;29;20040;-79
2022/08/28 01:26:25;;;;;;;12.02;9.10;;;;;;;19.62;88.39;96632.94;4935603;29;20056;-79
2022/08/28 01:28:53;;;;;;;11.05;9.27;;;;;;;19.55;87.14;96640.22;4940639;29;20036;-80
2022/08/28 01:31:21;;;;;;;9.77;8.77;;;;;;;19.58;89.54;96633.66;4940265;29;20093;-79
2022/08/28 01:33:49;;;;;;;11.90;10.18;;;;;;;19.66;93.30;96633.25;4940414;29;20039;-79
2022/08/28 01:36:18;;;;;;;13.73;10.70;;;;;;;19.68;94.86;96634.63;4939722;29;20096;-79
2022/08/28 01:38:49;;;;;;;13.13;11.73;;;;;;;19.71;94.77;96642.09;4940568;29;20056;-79
2022/08/28 01:41:19;;;;;;;13.98;12.27;;;;;;;19.71;94.51;96639.47;4939832;29;20052;-79
2022/08/28 01:43:47;;;;;;;16.27;13.18;;;;;;;19.68;93.06;96639.91;4938805;28;20048;-78
2022/08/28 01:46:15;;;;;;;17.27;14.70;;;;;;;19.68;93.96;96645.22;4939741;29;20092;-79
2022/08/28 01:48:44;;;;;;;15.85;12.55;;;;;;;19.65;92.88;96639.59;4939631;29;20056;-79
2022/08/28 01:51:13;;;;;;;14.38;11.60;;;;;;;19.67;94.68;96643.59;4939437;29;20052;-79
2022/08/28 01:53:41;;;;;;;15.15;13.57;;;;;;;19.68;94.68;96644.41;4939371;29;20045;-79
2022/08/28 01:56:15;;;;;;;15.68;13.48;;;;;;;19.64;93.46;96644.06;4939850;29;20076;-79
2022/08/28 01:58:46;;;;;;;17.85;13.68;;;;;;;19.66;95.49;96655.22;4940086;29;20040;-79
2022/08/28 02:01:17;;;;;;;15.30;13.02;;;;;;;19.69;97.37;96652.13;4939539;29;20048;-79
2022/08/28 02:03:45;;;;;;;21.00;15.82;;;;;;;19.70;97.36;96652.91;4939583;29;20059;-79
2022/08/28 02:06:14;;;;;;;21.45;16.60;;;;;;;19.68;96.34;96655.78;4939825;29;20080;-79
2022/08/28 02:08:42;;;;;;;19.90;15.68;;;;;;;19.68;96.86;96655.00;4938834;29;20052;-79
2022/08/28 02:11:11;;;;;;;20.08;15.60;;;;;;;19.70;98.27;96652.91;4938847;29;20056;-79
2022/08/28 02:13:40;;;;;;;20.23;15.63;;;;;;;19.70;97.12;96656.41;4939093;29;20083;-79
2022/08/28 02:16:10;;;;;;;16.83;13.82;;;;;;;19.68;96.15;96655.78;4940269;29;20048;-79
2022/08/28 02:18:38;;;;;;;16.58;13.45;;;;;;;19.62;93.59;96648.81;4938827;29;20058;-79
2022/08/28 02:21:07;;;;;;;16.27;12.70;;;;;;;19.54;90.22;96649.19;4934649;29;20080;-79
2022/08/28 02:23:37;;;;;;;16.75;13.70;;;;;;;19.53;91.66;96645.75;4937372;29;20067;-79
2022/08/28 02:26:05;;;;;;;14.65;12.80;;;;;;;19.55;91.71;96648.94;4938391;29;20084;-79
2022/08/28 02:28:33;;;;;;;16.85;14.30;;;;;;;19.53;89.58;96643.09;4938945;29;20036;-79
2022/08/28 02:31:00;;;;;;;17.30;14.55;;;;;;;19.52;89.98;96651.25;4937814;29;20052;-79
2022/08/28 02:33:29;;;;;;;19.70;15.15;;;;;;;19.55;92.32;96651.59;4938037;29;20058;-79
2022/08/28 02:35:57;;;;;;;18.42;14.95;;;;;;;19.54;91.32;96651.81;4932887;29;20048;-79
2022/08/28 02:38:25;;;;;;;18.40;14.23;;;;;;;19.47;88.75;96645.88;4938608;29;20048;-79
2022/08/28 02:40:53;;;;;;;16.75;14.32;;;;;;;19.49;91.18;96641.16;4938765;29;20076;-79
2022/08/28 02:43:20;;;;;;;18.38;15.25;;;;;;;19.52;92.92;96643.31;4938639;29;20089;-79
2022/08/28 02:45:48;;;;;;;15.68;13.13;;;;;;;19.50;90.73;96643.59;4938937;29;20052;-79
2022/08/28 02:48:16;;;;;;;19.38;15.07;;;;;;;19.51;90.69;96639.09;4938635;29;20062;-79
2022/08/28 02:50:45;;;;;;;20.10;15.52;;;;;;;19.55;93.39;96640.22;4935044;29;20056;-79
2022/08/28 02:53:13;;;;;;;21.40;15.48;;;;;;;19.56;94.95;96641.81;4933189;29;20071;-79
2022/08/28 02:55:41;;;;;;;18.90;15.13;;;;;;;19.57;95.35;96640.78;4938646;29;20076;-79
2022/08/28 02:58:09;;;;;;;16.42;14.52;;;;;;;19.58;96.22;96638.94;4939091;29;20056;-79
2022/08/28 03:00:36;;;;;;;19.48;14.45;;;;;;;19.58;94.20;96650.31;4938187;29;20044;-79
2022/08/28 03:03:04;;;;;;;17.38;13.60;;;;;;;19.58;95.63;96642.38;4938234;29;20044;-78
2022/08/28 03:05:33;;;;;;;17.95;14.27;;;;;;;19.59;94.20;96641.34;4938357;29;20048;-79
2022/08/28 03:08:02;;;;;;;23.27;16.92;;;;;;;19.61;95.82;96641.88;4938918;29;20033;-79
2022/08/28 03:10:30;;;;;;;21.55;15.40;;;;;;;19.62;95.92;96646.16;4938331;29;20048;-79
2022/08/28 03:12:58;;;;;;;20.13;16.35;;;;;;;19.62;95.84;96637.41;4938622;29;20198;-79
2022/08/28 03:15:25;;;;;;;21.33;15.88;;;;;;;19.63;97.52;96644.31;4938622;29;20081;-79
2022/08/28 03:17:53;;;;;;;20.40;15.35;;;;;;;19.60;95.11;96640.31;4937648;29;20048;-79
2022/08/28 03:20:20;;;;;;;18.27;14.90;;;;;;;19.59;94.83;96636.06;4937205;29;20052;-79
2022/08/28 03:25:35;;;;;;;19.65;15.82;;;;;;;19.62;97.32;96646.16;4937909;29;20438;-79
2022/08/28 03:28:03;;;;;;;22.60;17.13;;;;;;;19.61;96.55;96641.88;4938305;29;20059;-79
2022/08/28 03:30:31;;;;;;;19.60;16.90;;;;;;;19.56;93.83;96647.09;4937932;28;20060;-79
2022/08/28 03:33:00;;;;;;;23.77;17.25;;;;;;;19.56;94.80;96647.91;4938556;29;20040;-79
2022/08/28 03:35:27;;;;;;;20.83;17.13;;;;;;;19.54;94.82;96649.97;4937688;29;20051;-79
2022/08/28 03:37:55;;;;;;;20.80;15.02;;;;;;;19.53;93.24;96650.22;4938279;29;20059;-79
2022/08/28 03:40:23;;;;;;;19.13;15.82;;;;;;;19.47;90.18;96648.53;4937879;29;20048;-79
2022/08/28 03:42:52;;;;;;;18.23;15.50;;;;;;;19.41;88.15;96654.75;4938078;29;20080;-79
2022/08/28 03:45:20;;;;;;;19.73;15.18;;;;;;;19.37;87.40;96653.63;4935167;29;20116;-79
2022/08/28 03:47:48;;;;;;;16.92;14.90;;;;;;;19.33;87.10;96659.41;4938723;29;20063;-79
2022/08/28 03:50:17;;;;;;;18.80;15.27;;;;;;;19.33;87.94;96662.03;4938341;29;20056;-79
2022/08/28 03:52:46;;;;;;;22.70;16.10;;;;;;;19.35;88.52;96662.63;4938526;29;20063;-79
2022/08/28 03:55:14;;;;;;;20.23;15.43;;;;;;;19.35;88.84;96661.81;4936376;29;20076;-79
2022/08/28 03:57:41;;;;;;;19.75;16.80;;;;;;;19.34;88.44;96661.00;4939295;29;20036;-79
2022/08/28 04:00:13;;;;;;;19.83;17.27;;;;;;;19.37;89.00;96661.56;4938686;29;20044;-79
2022/08/28 04:02:41;;;;;;;21.27;16.10;;;;;;;19.37;87.87;96674.78;4938954;28;20048;-79
2022/08/28 04:05:10;;;;;;;20.30;14.70;;;;;;;19.33;86.37;96667.34;4939077;29;20036;-79
2022/08/28 04:07:38;;;;;;;21.50;14.75;;;;;;;19.28;85.70;96661.94;4934425;29;20051;-79
2022/08/28 04:10:07;;;;;;;19.17;14.80;;;;;;;19.28;86.79;96661.94;4942583;28;20040;-79
2022/08/28 04:12:35;;;;;;;21.58;16.20;;;;;;;19.27;85.98;96670.13;4942250;29;20076;-79
2022/08/28 04:15:04;;;;;;;17.98;15.27;;;;;;;19.23;85.51;96668.97;4938805;29;20052;-79
2022/08/28 04:17:37;;;;;;;19.30;15.32;;;;;;;19.20;85.48;96672.91;4942516;28;20048;-79
2022/08/28 04:20:06;;;;;;;20.27;15.77;;;;;;;19.19;86.01;96676.56;4933739;29;20067;-79
2022/08/28 04:22:36;;;;;;;19.05;16.00;;;;;;;19.19;86.36;96673.91;4942123;29;20133;-79
2022/08/28 04:25:04;;;;;;;23.77;16.13;;;;;;;19.18;85.86;96682.91;4942394;28;20032;-79
2022/08/28 04:27:32;;;;;;;22.38;15.82;;;;;;;19.20;85.85;96680.00;4942547;29;20048;-79
2022/08/28 04:29:59;;;;;;;19.00;16.17;;;;;;;19.21;86.33;96678.97;4941794;29;20101;-78
2022/08/28 04:32:27;;;;;;;18.05;14.85;;;;;;;19.22;86.63;96675.28;4941557;29;20076;-79
2022/08/28 04:34:56;;;;;;;18.90;14.70;;;;;;;19.28;89.94;96680.44;4941514;29;20040;-79
2022/08/28 04:37:23;;;;;;;22.70;15.68;;;;;;;19.30;91.23;96681.00;4940817;29;20063;-79
2022/08/28 04:39:54;;;;;;;24.00;16.80;;;;;;;19.31;91.68;96679.19;4941516;28;20063;-79
2022/08/28 04:42:22;;;;;;;22.88;15.55;;;;;;;19.27;88.60;96681.50;4941081;29;20056;-79
2022/08/28 04:44:50;;;;;;;21.80;15.77;;;;;;;19.21;86.72;96681.63;4941629;29;20072;-79
2022/08/28 04:47:18;;;;;;;24.63;15.85;;;;;;;19.19;86.06;96678.41;4941494;29;20048;-79
2022/08/28 04:49:45;;;;;;;18.95;15.55;;;;;;;19.17;86.00;96677.84;4941440;29;20055;-79
2022/08/28 04:52:14;;;;;;;18.38;15.18;;;;;;;19.18;86.87;96687.41;4941453;29;20056;-80
2022/08/28 04:54:42;;;;;;;19.55;16.35;;;;;;;19.19;88.30;96689.78;4941630;28;20051;-79
2022/08/28 04:57:09;;;;;;;15.88;14.18;;;;;;;19.23;90.34;96688.28;4942320;28;20040;-79
2022/08/28 04:59:37;;;;;;;18.52;15.45;;;;;;;19.29;91.73;96690.00;4940963;29;20060;-79
2022/08/28 05:02:05;;;;;;;18.92;15.02;;;;;;;19.31;92.08;96687.91;4938792;29;20043;-79
2022/08/28 05:04:33;;;;;;;24.08;17.00;;;;;;;19.29;90.62;96695.28;4938234;29;20407;-79
2022/08/28 05:07:01;;;;;;;24.42;15.98;;;;;;;19.26;88.64;96684.38;4941135;29;20052;-79
2022/08/28 05:09:30;;;;;;;33.65;15.65;;;;;;;19.20;87.23;96686.13;4941430;29;20052;-79
2022/08/28 05:12:02;;;;;;;22.33;16.35;;;;;;;19.22;87.24;96681.41;4941095;29;20051;-79
2022/08/28 05:14:30;;;;;;;18.55;15.82;;;;;;;19.25;89.35;96682.78;4939544;29;20056;-79
2022/08/28 05:16:57;;;;;;;15.88;13.95;;;;;;;19.30;91.50;96686.31;4940110;29;20036;-79
2022/08/28 05:19:27;;;;;;;20.17;15.75;;;;;;;19.30;89.23;96691.59;4940733;29;20055;-79
2022/08/28 05:21:55;;;;;;;19.85;15.48;;;;;;;19.29;88.53;96689.19;4940649;28;20048;-79
2022/08/28 05:24:22;;;;;;;20.05;15.07;;;;;;;19.26;86.81;96679.91;4941206;29;20064;-79
2022/08/28 05:26:51;;;;;;;19.83;16.45;;;;;;;19.24;85.79;96686.44;4940452;29;20048;-79
2022/08/28 05:29:19;;;;;;;23.25;16.17;;;;;;;19.22;85.32;96688.50;4940351;28;20044;-79
2022/08/28 05:31:49;;;;;;;23.25;16.15;;;;;;;19.20;86.48;96688.75;4939858;29;20093;-79
2022/08/28 05:34:17;;;;;;;17.27;14.25;;;;;;;19.24;88.69;96687.25;4939652;29;20052;-79
2022/08/28 05:36:45;;;;;;;18.90;15.32;;;;;;;19.25;86.21;96691.50;4939541;29;20059;-79
2022/08/28 05:39:13;;;;;;;16.65;14.65;;;;;;;19.22;85.01;96691.16;4939554;29;20084;-79
2022/08/28 05:41:44;;;;;;;20.23;15.93;;;;;;;19.22;86.95;96691.97;4938714;29;20049;-78
2022/08/28 05:44:15;;;;;;;16.85;14.20;;;;;;;19.25;85.71;96688.84;4938965;29;20059;-79
2022/08/28 05:46:46;;;;;;;18.90;15.30;;;;;;;19.26;85.20;96693.13;4939670;29;20055;-79
2022/08/28 05:49:14;;;;;;;19.27;15.37;;;;;;;19.26;84.88;96695.78;4939401;29;20062;-79
2022/08/28 05:51:42;;;;;;;20.30;14.75;;;;;;;19.27;84.91;96700.00;4938145;29;20277;-79
2022/08/28 05:54:11;;;;;;;17.58;14.80;;;;;;;19.26;84.30;96703.69;4939748;29;20043;-79
2022/08/28 05:56:40;;;;;;;17.52;14.27;;;;;;;19.28;85.71;96712.19;4938630;29;20052;-79
2022/08/28 05:59:09;;;;;;;18.05;15.13;;;;;;;19.35;87.05;96715.50;4937536;29;20052;-79
2022/08/28 06:01:42;;;;;;;19.02;14.90;;;;;;;19.34;85.31;96708.59;4935488;29;20032;-79
2022/08/28 06:04:16;;;;;;;22.23;14.93;;;;;;;19.34;84.83;96711.25;4975923;23;20143;-80
2022/08/28 06:06:48;;;;;;;20.80;15.27;;;;;;;19.34;84.39;96713.09;4921408;29;20052;-81
2022/08/28 06:09:19;;;;;;;24.85;16.35;;;;;;;19.31;83.67;96714.38;4921825;29;20059;-81
2022/08/28 06:11:55;;;;;;;19.25;15.05;;;;;;;19.32;85.11;96721.25;4921598;29;20051;-80
2022/08/28 06:14:25;;;;;;;21.70;15.95;;;;;;;19.37;86.76;96717.09;4921758;29;20071;-80
2022/08/28 06:16:58;;;;;;;20.45;14.82;;;;;;;19.34;84.66;96719.19;4922339;29;20048;-81
2022/08/28 06:19:29;;;;;;;20.02;15.27;;;;;;;19.32;84.31;96715.16;4921945;29;20121;-84
2022/08/28 06:22:03;;;;;;;18.48;15.02;;;;;;;19.34;84.52;96718.38;4921538;29;20076;-83
2022/08/28 06:27:03;;;;;;;22.25;15.32;;;;;;;19.40;84.51;96716.66;4845503;29;20054;-80
2022/08/28 06:29:32;;;;;;;15.20;13.50;;;;;;;19.45;85.22;96719.38;4846964;29;20074;-80
2022/08/28 06:32:05;;;;;;;19.65;14.70;;;;;;;19.46;83.89;96726.28;4847019;29;20057;-83
2022/08/28 06:34:35;;;;;;;18.17;15.00;;;;;;;19.46;83.67;96727.09;4846983;29;20064;-83
2022/08/28 06:37:06;;;;;;;18.17;14.77;;;;;;;19.49;83.85;96721.31;4848976;29;20050;-83
2022/08/28 06:39:37;;;;;;;18.88;15.63;;;;;;;19.46;82.06;96727.09;4847979;29;20081;-83
2022/08/28 06:42:07;;;;;;;19.90;14.73;;;;;;;19.43;81.91;96732.03;4848566;29;20145;-83
2022/08/28 06:47:57;;;;;;;22.08;14.75;;;;;;;19.38;82.15;96735.41;4901071;29;20053;-81
2022/08/28 06:50:29;;;;;;;18.38;13.73;;;;;;;19.38;82.41;96730.09;4904898;29;20068;-81
2022/08/28 06:53:00;;;;;;;19.98;14.70;;;;;;;19.43;82.38;96737.34;4905182;29;20056;-81
2022/08/28 06:55:29;;;;;;;19.98;14.48;;;;;;;19.45;81.86;96741.34;4904581;29;20108;-81
2022/08/28 06:58:00;;;;;;;15.40;13.75;;;;;;;19.52;84.41;96746.50;4904156;29;20053;-81
2022/08/28 07:00:30;;;;;;;20.20;14.25;;;;;;;19.55;82.92;96743.41;4903628;29;20048;-81
2022/08/28 07:03:03;;;;;;;19.33;13.98;;;;;;;19.59;84.02;96747.19;4906509;29;20036;-82
2022/08/28 07:05:34;;;;;;;22.20;15.57;;;;;;;19.64;83.88;96746.47;4918260;29;20083;-82
2022/08/28 07:08:05;;;;;;;22.00;16.55;;;;;;;19.67;83.17;96744.16;4919530;29;20072;-81
2022/08/28 07:10:35;;;;;;;21.13;14.32;;;;;;;19.66;81.57;96750.50;4907357;29;20056;-81
2022/08/28 07:13:05;;;;;;;17.02;14.82;;;;;;;19.65;81.58;96751.53;4905799;29;20455;-81
2022/08/28 07:15:35;;;;;;;18.70;14.20;;;;;;;19.65;81.32;96750.72;4908614;29;20075;-81
2022/08/28 07:18:11;;;;;;;18.58;13.63;;;;;;;19.65;80.90;96754.16;4917329;29;20076;-82
2022/08/28 07:20:40;;;;;;;17.77;14.75;;;;;;;19.69;82.16;96752.69;4915672;29;20055;-81
2022/08/28 07:23:10;;;;;;;16.13;13.43;;;;;;;19.72;81.12;96751.41;4912048;29;20040;-81
2022/08/28 07:25:44;;;;;;;17.90;14.70;;;;;;;19.79;84.39;96762.69;4905493;29;20092;-81
2022/08/28 07:28:15;;;;;;;16.63;13.75;;;;;;;19.80;81.32;96756.34;4903874;29;20100;-81
2022/08/28 07:30:45;;;;;;;16.10;13.77;;;;;;;19.83;80.96;96763.00;4904007;29;20059;-81
2022/08/28 07:33:15;;;;;;;17.77;13.40;;;;;;;19.86;80.16;96757.25;4904982;29;20052;-81
2022/08/28 07:35:45;;;;;;;16.83;14.27;;;;;;;19.84;78.81;96759.31;4904401;29;20076;-81
2022/08/28 07:38:15;;;;;;;19.40;13.93;;;;;;;19.82;78.67;96758.75;4903457;29;20045;-81
2022/08/28 07:40:45;;;;;;;19.08;13.27;;;;;;;19.81;78.55;96767.72;4905513;29;20056;-81
2022/08/28 07:46:07;;;;;;;18.63;14.50;;;;;;;19.85;80.23;96769.66;4906851;29;20053;-81
2022/08/28 07:48:40;;;;;;;18.55;13.02;;;;;;;19.87;78.85;96769.44;4907257;29;20049;-81
2022/08/28 07:51:10;;;;;;;17.95;13.80;;;;;;;19.86;78.73;96762.53;4907625;29;20482;-81
2022/08/28 07:53:43;;;;;;;16.50;13.48;;;;;;;19.88;78.15;96765.75;4907691;29;20117;-81
2022/08/28 07:56:13;;;;;;;15.05;12.82;;;;;;;19.90;79.47;96771.63;4906653;29;20052;-81
2022/08/28 07:58:42;;;;;;;14.82;12.73;;;;;;;19.96;82.06;96778.59;4908058;29;20045;-81
2022/08/28 08:01:12;;;;;;;15.88;13.15;;;;;;;20.04;80.70;96780.88;4908649;29;20056;-81
2022/08/28 08:03:48;;;;;;;14.55;12.85;;;;;;;20.08;79.96;96789.94;4908415;29;20060;-81
2022/08/28 08:06:27;;;;;;;16.10;12.27;;;;;;;20.16;80.61;96789.56;4907933;29;20056;-81
2022/08/28 08:09:02;;;;;;;15.80;12.32;;;;;;;20.21;78.93;96791.50;4908746;29;20561;-81
2022/08/28 08:11:33;;;;;;;13.23;11.77;;;;;;;20.33;78.83;96794.06;4906960;29;20243;-81
2022/08/28 08:14:08;;;;;;;16.73;12.80;;;;;;;20.39;76.70;96798.41;4908580;29;20060;-83
2022/08/28 08:16:44;;;;;;;18.65;12.45;;;;;;;20.45;76.49;96796.66;4908053;29;20052;-81
2022/08/28 08:19:19;;;;;;;15.00;11.38;;;;;;;20.50;76.88;96797.53;4907661;29;20075;-81
2022/08/28 08:21:54;;;;;;;15.20;13.27;;;;;;;20.55;76.47;96802.13;4908890;29;20081;-82
2022/08/28 08:24:25;;;;;;;13.65;11.10;;;;;;;20.60;77.32;96804.06;4908966;29;20499;-81
2022/08/28 08:27:02;;;;;;;17.92;13.10;;;;;;;20.60;76.21;96807.56;4909083;29;20120;-81
2022/08/28 08:29:37;;;;;;;17.10;11.98;;;;;;;20.61;75.25;96808.34;4907899;29;20121;-84
2022/08/28 08:32:15;;;;;;;15.25;12.23;;;;;;;20.63;78.73;96814.22;4911390;29;20060;-82
2022/08/28 08:35:01;;;;;;;15.43;12.20;;;;;;;20.72;80.57;96812.75;4911339;29;20056;-84
2022/08/28 08:40:45;;;;;;;14.98;12.07;;;;;;;20.95;80.73;96812.59;4911845;29;20084;-81
2022/08/28 08:43:22;;;;;;;14.18;10.73;;;;;;;20.97;75.86;96818.47;4912362;29;20052;-81
2022/08/28 08:46:02;;;;;;;14.68;11.10;;;;;;;21.01;78.92;96816.13;4911622;29;20053;-81
2022/08/28 08:48:48;;;;;;;14.13;11.10;;;;;;;21.07;76.31;96824.97;4910802;29;20053;-81
2022/08/28 08:59:12;;;;;;;13.55;11.40;;;;;;;21.18;73.39;96822.19;4915718;29;20055;-84
2022/08/28 09:02:12;;;;;;;13.45;10.20;;;;;;;21.32;73.86;96822.66;4913587;29;20067;-81
2022/08/28 09:14:16;;;;;;;12.63;9.73;;;;;;;22.39;69.16;96831.13;5053792;23;20044;-82
2022/08/28 09:39:43;;;;;;;14.93;9.15;;;;;;;22.73;67.98;96832.75;4874657;23;20037;-78
2022/08/28 09:45:17;;;;;;;10.77;8.55;;;;;;;23.11;69.91;96831.72;4902899;29;19924;-79
2022/08/28 09:47:48;;;;;;;12.18;9.13;;;;;;;23.14;67.31;96835.75;4904658;29;20041;-79
2022/08/28 09:50:26;;;;;;;9.13;8.23;;;;;;;23.14;66.65;96835.75;4902077;29;20045;-78
2022/08/28 09:52:56;;;;;;;10.18;9.00;;;;;;;23.14;70.63;96835.75;4902463;29;20072;-79
2022/08/28 09:55:32;;;;;;;9.82;7.88;;;;;;;23.18;66.68;96832.31;4904032;29;20037;-78
2022/08/28 09:58:03;;;;;;;9.68;8.35;;;;;;;23.34;65.05;96827.88;4902915;29;20033;-79
2022/08/28 10:00:35;;;;;;;10.20;8.27;;;;;;;23.56;64.74;96832.25;4903620;29;20041;-79
2022/08/28 10:03:09;;;;;;;10.65;8.18;;;;;;;23.80;63.40;96833.44;4902791;29;20065;-79
2022/08/28 10:05:43;;;;;;;9.38;7.13;;;;;;;24.01;64.19;96833.53;4902342;29;20041;-79
2022/08/28 10:08:24;;;;;;;9.40;7.78;;;;;;;24.19;61.25;96830.34;4903421;29;20072;-79
2022/08/28 10:10:58;;;;;;;7.82;6.88;;;;;;;24.44;60.82;96839.47;4903491;29;20091;-79
2022/08/28 10:13:31;;;;;;;7.80;6.97;;;;;;;24.69;58.95;96846.72;4903618;29;20052;-79
2022/08/28 10:16:18;;;;;;;8.43;6.47;;;;;;;24.91;57.69;96846.47;4904211;29;20069;-79
2022/08/28 10:18:56;;;;;;;10.95;7.10;;;;;;;25.02;57.61;96842.72;4903450;29;20044;-78
2022/08/28 10:21:29;;;;;;;7.72;6.70;;;;;;;25.18;57.64;96832.81;4903787;29;20045;-78
2022/08/28 10:24:13;;;;;;;8.05;6.85;;;;;;;25.38;57.46;96834.66;4903819;29;20057;-78
2022/08/28 10:26:59;;;;;;;8.13;7.30;;;;;;;25.55;56.65;96834.34;4903995;29;20041;-79
2022/08/28 10:29:41;;;;;;;8.38;6.90;;;;;;;25.58;56.28;96838.34;4904007;29;20037;-78
2022/08/28 10:32:22;;;;;;;8.05;6.60;;;;;;;25.54;56.30;96837.28;4902857;29;20078;-79
2022/08/28 10:35:02;;;;;;;7.15;6.40;;;;;;;25.48;55.59;96839.97;4903620;29;20036;-79
2022/08/28 10:37:42;;;;;;;7.80;6.47;;;;;;;25.45;54.92;96835.19;4903912;29;20066;-79
2022/08/28 10:40:16;;;;;;;6.82;6.13;;;;;;;25.38;54.69;96834.66;4903295;29;20045;-78
2022/08/28 10:42:49;;;;;;;6.60;4.88;;;;;;;25.32;54.49;96830.44;4903760;29;20072;-78
2022/08/28 10:45:23;;;;;;;9.25;5.85;;;;;;;25.29;54.06;96823.72;4903736;29;20040;-79
2022/08/28 10:47:57;;;;;;;9.23;6.10;;;;;;;25.33;54.59;96820.53;4903706;29;20036;-79
2022/08/28 10:50:29;;;;;;;8.98;6.47;;;;;;;25.38;53.27;96823.97;4903170;29;20044;-78
2022/08/28 10:53:02;;;;;;;9.52;5.93;;;;;;;25.39;53.02;96828.25;4903617;29;20041;-78
2022/08/28 10:55:37;;;;;;;11.55;7.85;;;;;;;25.56;55.00;96821.78;4903438;29;20044;-78
2022/08/28 10:58:08;;;;;;;8.35;5.80;;;;;;;25.73;53.24;96818.78;4903515;29;20041;-79
2022/08/28 11:00:55;;;;;;;6.40;5.80;;;;;;;25.78;51.97;96824.09;4902940;29;20036;-79
2022/08/28 11:03:25;;;;;;;9.30;5.35;;;;;;;25.80;53.12;96814.78;4903553;29;20066;-79
2022/08/28 11:06:10;;;;;;;10.25;5.43;;;;;;;25.89;54.18;96823.03;4903456;29;20041;-78
2022/08/28 11:08:39;;;;;;;5.75;4.72;;;;;;;26.01;53.29;96820.81;4903198;29;20037;-79
2022/08/28 11:11:13;;;;;;;5.95;4.95;;;;;;;26.11;52.13;96820.00;4903116;29;20060;-79
2022/08/28 11:13:52;;;;;;;7.78;6.75;;;;;;;26.24;50.57;96830.06;4903237;29;20037;-79
2022/08/28 11:16:24;;;;;;;5.97;4.90;;;;;;;26.32;50.98;96820.66;4903104;29;21061;-79
2022/08/28 11:19:19;;;;;;;6.57;5.00;;;;;;;26.44;51.51;96823.78;4903271;29;20047;-79
2022/08/28 11:21:51;;;;;;;5.63;4.93;;;;;;;26.59;50.17;96825.59;4902882;29;20036;-80
2022/08/28 11:24:43;;;;;;;5.60;5.10;;;;;;;26.70;50.73;96821.75;4903225;29;20060;-80
2022/08/28 11:27:22;;;;;;;5.45;4.85;;;;;;;26.56;53.54;96826.13;4903017;29;20044;-79
2022/08/28 11:29:58;;;;;;;5.97;4.63;;;;;;;26.30;51.06;96823.63;4903055;29;20041;-79
2022/08/28 11:32:37;;;;;;;7.68;6.82;;;;;;;26.14;52.89;96821.31;4903231;29;20040;-79
2022/08/28 11:35:45;;;;;;;6.78;5.40;;;;;;;25.97;52.17;96818.97;4903153;29;20045;-79
2022/08/28 11:38:51;;;;;;;9.57;5.57;;;;;;;25.78;54.57;96824.94;4903081;29;20089;-78
2022/08/28 11:41:21;;;;;;;7.93;5.50;;;;;;;25.63;52.57;96816.97;4902468;29;20044;-79
2022/08/28 11:43:52;;;;;;;6.32;5.35;;;;;;;25.52;54.36;96818.06;4903242;29;20037;-78
2022/08/28 11:46:31;;;;;;;6.13;4.95;;;;;;;25.44;53.29;96822.09;4903091;29;20226;-79
2022/08/28 11:49:02;;;;;;;7.85;5.15;;;;;;;25.39;53.34;96825.59;4903032;29;20057;-79
2022/08/28 11:51:56;;;;;;;6.80;5.30;;;;;;;25.35;52.88;96823.75;4902850;29;20090;-78
2022/08/28 11:54:38;;;;;;;6.88;5.53;;;;;;;25.33;54.60;96825.88;4903011;29;20106;-79
2022/08/28 11:57:10;;;;;;;8.63;5.05;;;;;;;25.36;53.42;96830.66;4903187;29;20061;-78
2022/08/28 12:00:07;;;;;;;5.43;4.95;;;;;;;25.39;54.13;96830.94;4902743;29;20045;-78
2022/08/28 12:02:50;;;;;;;8.00;5.50;;;;;;;25.51;54.19;96835.16;4903093;29;20061;-78
2022/08/28 12:05:52;;;;;;;5.93;5.10;;;;;;;25.57;53.27;96818.84;4903021;29;20092;-79
2022/08/28 12:09:10;;;;;;;6.45;5.10;;;;;;;25.66;54.08;96827.09;4902964;29;20052;-78
2022/08/28 12:11:50;;;;;;;6.85;4.80;;;;;;;25.81;52.04;96821.69;4902592;29;20041;-78
2022/08/28 12:15:06;;;;;;;5.97;4.63;;;;;;;25.92;51.24;96816.34;4902990;29;20041;-79
2022/08/28 12:17:48;;;;;;;9.07;5.28;;;;;;;26.02;51.79;96814.41;4902903;29;20037;-79
2022/08/28 12:20:23;;;;;;;5.30;4.80;;;;;;;26.12;52.10;96810.88;4902384;29;20383;-79
2022/08/28 12:22:55;;;;;;;4.88;4.20;;;;;;;26.20;51.75;96812.97;4902768;29;20052;-78
2022/08/28 12:25:30;;;;;;;8.25;4.70;;;;;;;26.25;50.68;96815.59;4902760;29;20037;-79
2022/08/28 12:28:03;;;;;;;6.65;4.10;;;;;;;26.28;50.73;96817.75;4904532;29;20045;-78
2022/08/28 12:30:40;;;;;;;6.25;4.28;;;;;;;26.29;49.69;96813.97;4905589;29;20040;-79
2022/08/28 12:33:15;;;;;;;4.35;3.92;;;;;;;26.29;49.27;96822.00;4905771;29;20053;-79
2022/08/28 12:35:43;;;;;;;6.45;4.45;;;;;;;26.29;48.41;96815.88;4905831;29;20037;-79
2022/08/28 12:38:19;;;;;;;4.78;4.15;;;;;;;26.20;47.99;96818.31;4905805;29;20089;-79
2022/08/28 12:40:53;;;;;;;23.23;15.73;;;;;;;26.14;49.56;96811.41;4905375;29;20079;-78
2022/08/28 12:43:29;;;;;;;6.50;5.50;;;;;;;26.11;49.13;96814.63;4905858;29;20048;-79